Time;durP1;ratioP1;P1;durP2;ratioP2;P2;SDS_P1;SDS_P2;PMS_P1;PMS_P2;Temp;Humidity;BMP_temperature;BMP_pressure;BME280_temperature;BME280_humidity;BME280_pressure;Samples;Min_cycle;Max_cycle;Signal;HPM_P1;HPM_P2
2021/12/31 00:02:33;;;;;;;18.98;7.92;;;;;;;7.89;100.00;98555.49;2144128;83;21003;-81
2021/12/31 00:05:35;;;;;;;16.95;7.28;;;;;;;7.93;100.00;98559.87;2143591;83;21252;-81
2021/12/31 00:08:35;;;;;;;9.53;6.22;;;;;;;7.95;100.00;98562.66;2144165;83;21522;-81
2021/12/31 00:11:38;;;;;;;13.32;6.87;;;;;;;8.00;100.00;98562.14;2143993;83;20971;-81
2021/12/31 00:14:38;;;;;;;25.08;19.37;;;;;;;8.04;100.00;98556.91;2143879;83;20966;-81
2021/12/31 00:17:40;;;;;;;61.90;33.38;;;;;;;8.07;100.00;98568.33;2143979;83;21038;-81
2021/12/31 00:20:41;;;;;;;19.25;9.90;;;;;;;8.11;100.00;98567.50;2143962;83;21022;-81
2021/12/31 00:23:43;;;;;;;12.75;7.03;;;;;;;8.15;100.00;98571.41;2143986;83;21039;-81
2021/12/31 00:26:44;;;;;;;10.30;6.47;;;;;;;8.19;100.00;98574.00;2143962;83;21003;-81
2021/12/31 00:29:45;;;;;;;12.47;6.95;;;;;;;8.20;100.00;98565.19;2143862;83;21046;-81
2021/12/31 00:32:46;;;;;;;9.38;6.40;;;;;;;8.21;100.00;98562.89;2144138;83;21770;-81
2021/12/31 00:35:46;;;;;;;14.63;7.90;;;;;;;8.21;100.00;98565.02;2143940;83;20999;-81
2021/12/31 00:38:47;;;;;;;10.80;7.08;;;;;;;8.24;100.00;98569.91;2142102;83;21529;-81
2021/12/31 00:41:48;;;;;;;8.45;6.15;;;;;;;8.27;100.00;98570.88;2141308;83;21048;-81
2021/12/31 00:44:49;;;;;;;8.38;6.20;;;;;;;8.31;100.00;98570.03;2142272;83;20986;-81
2021/12/31 00:47:50;;;;;;;7.05;5.70;;;;;;;8.34;100.00;98573.63;2141640;83;20986;-81
2021/12/31 00:50:51;;;;;;;7.70;5.70;;;;;;;8.36;100.00;98578.22;2141762;83;20924;-81
2021/12/31 00:53:52;;;;;;;9.25;7.03;;;;;;;8.37;100.00;98581.14;2141656;83;21034;-81
2021/12/31 00:56:59;;;;;;;7.45;6.47;;;;;;;8.40;100.00;98582.59;2141756;83;21042;-81
2021/12/31 00:59:56;;;;;;;6.22;5.47;;;;;;;8.43;100.00;98581.78;2141688;82;21102;-81
2021/12/31 01:02:56;;;;;;;6.62;6.03;;;;;;;8.44;100.00;98585.20;2141784;83;21031;-82
2021/12/31 01:05:58;;;;;;;6.75;6.00;;;;;;;8.48;100.00;98580.77;2141465;83;21171;-82
2021/12/31 01:08:58;;;;;;;6.37;5.67;;;;;;;8.51;100.00;98572.62;2141886;83;21004;-81
2021/12/31 01:12:01;;;;;;;7.28;5.90;;;;;;;8.55;100.00;98574.39;2142086;83;20955;-81
2021/12/31 01:15:08;;;;;;;7.15;5.55;;;;;;;8.59;100.00;98580.07;2141592;83;21504;-81
2021/12/31 01:21:11;;;;;;;6.25;5.65;;;;;;;8.65;100.00;98583.31;2141619;83;20982;-81
2021/12/31 01:24:12;;;;;;;5.05;4.50;;;;;;;8.68;100.00;98586.88;2141720;83;21014;-81
2021/12/31 01:27:12;;;;;;;4.28;3.98;;;;;;;8.74;100.00;98591.43;2141775;83;20924;-81
2021/12/31 01:30:13;;;;;;;4.65;4.25;;;;;;;8.79;100.00;98584.73;2141742;83;20991;-81
2021/12/31 01:33:14;;;;;;;4.72;4.33;;;;;;;8.81;100.00;98584.05;2141737;82;21477;-81
2021/12/31 01:36:15;;;;;;;5.00;4.53;;;;;;;8.87;100.00;98586.48;2141727;83;21087;-81
2021/12/31 01:39:16;;;;;;;5.17;4.67;;;;;;;8.89;100.00;98588.92;2143451;83;21542;-81
2021/12/31 01:42:27;;;;;;;4.40;4.00;;;;;;;8.92;100.00;98595.09;2143846;83;20963;-81
2021/12/31 01:45:21;;;;;;;7.05;4.35;;;;;;;8.97;100.00;98591.00;2143216;83;21086;-81
2021/12/31 01:48:27;;;;;;;4.80;4.25;;;;;;;9.01;100.00;98594.06;2144010;83;20995;-81
2021/12/31 01:51:24;;;;;;;6.22;5.10;;;;;;;9.06;100.00;98594.38;2143858;83;21031;-81
2021/12/31 01:54:25;;;;;;;6.45;4.78;;;;;;;9.08;100.00;98598.92;2144025;83;21058;-81
2021/12/31 01:57:26;;;;;;;9.05;5.83;;;;;;;9.11;100.00;98594.66;2144047;83;20983;-81
2021/12/31 02:00:27;;;;;;;8.50;5.60;;;;;;;9.16;100.00;98594.15;2143867;83;21307;-81
2021/12/31 02:03:28;;;;;;;11.43;6.28;;;;;;;9.19;100.00;98597.71;2143932;83;21066;-81
2021/12/31 02:06:28;;;;;;;10.85;6.45;;;;;;;9.16;100.00;98587.12;2144075;83;20998;-81
2021/12/31 02:09:34;;;;;;;7.12;5.37;;;;;;;9.14;100.00;98599.52;2143617;83;21039;-80
2021/12/31 02:12:32;;;;;;;13.90;7.53;;;;;;;9.14;100.00;98596.91;2143786;83;21494;-80
2021/12/31 02:15:33;;;;;;;8.83;6.40;;;;;;;9.12;100.00;98592.36;2143955;83;21334;-81
2021/12/31 02:18:34;;;;;;;7.33;5.97;;;;;;;9.14;100.00;98607.36;2143825;83;21513;-81
2021/12/31 02:21:34;;;;;;;7.75;5.80;;;;;;;9.15;100.00;98605.09;2143963;83;20943;-81
2021/12/31 02:24:36;;;;;;;10.82;7.05;;;;;;;9.19;100.00;98603.75;2143891;83;21594;-80
2021/12/31 02:27:37;;;;;;;8.40;7.30;;;;;;;9.21;100.00;98606.19;2143998;83;21038;-81
2021/12/31 02:30:38;;;;;;;9.65;7.55;;;;;;;9.23;100.00;98605.02;2143849;83;21051;-81
2021/12/31 02:33:39;;;;;;;13.48;9.83;;;;;;;9.25;100.00;98611.40;2143835;83;20939;-81
2021/12/31 02:36:40;;;;;;;14.55;9.78;;;;;;;9.26;100.00;98614.33;2143878;83;21533;-80
2021/12/31 02:39:42;;;;;;;13.60;9.43;;;;;;;9.27;100.00;98612.84;2122237;83;21040;-81
2021/12/31 02:42:43;;;;;;;11.63;9.25;;;;;;;9.28;100.00;98607.94;2031185;88;21098;-81
2021/12/31 02:45:44;;;;;;;11.20;8.25;;;;;;;9.32;100.00;98610.50;2122998;84;20995;-81
2021/12/31 02:48:47;;;;;;;11.18;8.75;;;;;;;9.33;100.00;98606.13;2120211;84;21013;-81
2021/12/31 02:51:47;;;;;;;14.03;10.82;;;;;;;9.35;100.00;98614.59;2031176;88;21051;-81
2021/12/31 02:54:48;;;;;;;13.20;9.75;;;;;;;9.37;100.00;98617.34;2123114;84;21495;-81
2021/12/31 02:57:49;;;;;;;15.15;9.55;;;;;;;9.37;100.00;98613.92;2120183;84;20980;-81
2021/12/31 03:00:50;;;;;;;13.13;9.68;;;;;;;9.39;100.00;98617.16;2031160;86;21632;-80
2021/12/31 03:03:50;;;;;;;15.58;10.05;;;;;;;9.40;100.00;98609.64;2123051;84;21032;-81
2021/12/31 03:06:51;;;;;;;21.05;18.40;;;;;;;9.40;100.00;98611.76;2122920;84;21071;-81
2021/12/31 03:09:52;;;;;;;19.67;9.03;;;;;;;9.43;100.00;98612.42;2122985;84;21447;-81
2021/12/31 03:12:53;;;;;;;14.55;8.65;;;;;;;9.43;100.00;98613.23;2120163;84;21289;-81
2021/12/31 03:15:54;;;;;;;15.95;8.48;;;;;;;9.43;100.00;98613.23;2031384;86;21625;-81
2021/12/31 03:18:56;;;;;;;11.45;8.33;;;;;;;9.38;100.00;98605.09;2123219;83;21055;-81
2021/12/31 03:21:56;;;;;;;12.73;7.75;;;;;;;9.37;100.00;98608.69;2123131;84;21043;-81
2021/12/31 03:24:57;;;;;;;14.05;8.33;;;;;;;9.38;100.00;98612.44;2123329;84;20984;-81
2021/12/31 03:27:58;;;;;;;8.58;7.22;;;;;;;9.39;100.00;98613.24;2120336;84;20978;-81
2021/12/31 03:30:59;;;;;;;8.08;6.67;;;;;;;9.35;100.00;98607.56;2031345;86;20985;-81
2021/12/31 03:33:59;;;;;;;9.83;7.25;;;;;;;9.35;100.00;98614.59;2123058;84;21525;-81
2021/12/31 03:37:00;;;;;;;7.90;6.12;;;;;;;9.33;100.00;98617.38;2120222;84;20949;-81
2021/12/31 03:40:02;;;;;;;7.62;5.78;;;;;;;9.34;100.00;98612.97;2061730;86;21156;-82
2021/12/31 03:43:02;;;;;;;8.25;6.17;;;;;;;9.31;100.00;98611.98;2144413;83;21473;-81
2021/12/31 03:46:03;;;;;;;7.67;6.05;;;;;;;9.33;100.00;98616.08;2144276;83;21071;-81
2021/12/31 03:49:04;;;;;;;7.53;6.08;;;;;;;9.35;100.00;98614.59;2144368;83;21487;-81
2021/12/31 03:52:05;;;;;;;6.85;5.67;;;;;;;9.36;100.00;98617.03;2144392;83;20947;-81
2021/12/31 03:55:06;;;;;;;5.85;5.22;;;;;;;9.37;100.00;98616.53;2144291;83;21054;-81
2021/12/31 03:58:06;;;;;;;8.78;6.12;;;;;;;9.41;100.00;98621.72;2144546;83;21454;-81
2021/12/31 04:01:07;;;;;;;8.40;6.30;;;;;;;9.45;100.00;98624.81;2144239;83;20999;-81
2021/12/31 04:04:09;;;;;;;10.30;7.78;;;;;;;9.45;100.00;98624.81;2144218;83;20994;-81
2021/12/31 04:07:10;;;;;;;12.90;9.35;;;;;;;9.45;100.00;98618.28;2144391;83;21471;-81
2021/12/31 04:10:11;;;;;;;8.75;6.80;;;;;;;9.41;100.00;98617.30;2144353;83;20994;-81
2021/12/31 04:13:12;;;;;;;9.03;6.78;;;;;;;9.41;100.00;98616.48;2144321;83;21025;-81
2021/12/31 04:16:13;;;;;;;12.30;7.62;;;;;;;9.40;100.00;98614.37;2144335;83;20947;-81
2021/12/31 04:19:14;;;;;;;9.80;7.42;;;;;;;9.44;100.00;98607.02;2144093;83;21046;-81
2021/12/31 04:22:14;;;;;;;14.78;8.50;;;;;;;9.45;100.00;98604.72;2144431;83;20952;-81
2021/12/31 04:25:15;;;;;;;17.77;8.53;;;;;;;9.46;100.00;98593.27;2144211;83;21032;-81
2021/12/31 04:28:16;;;;;;;17.12;9.53;;;;;;;9.51;100.00;98592.27;2144206;83;21039;-81
2021/12/31 04:31:17;;;;;;;50.15;30.72;;;;;;;9.52;100.00;98580.01;2144270;83;20955;-81
2021/12/31 04:34:18;;;;;;;141.18;86.95;;;;;;;9.51;100.00;98568.74;2144345;83;21055;-82
2021/12/31 04:37:19;;;;;;;50.28;25.65;;;;;;;9.52;100.00;98576.09;2144460;83;21058;-81
2021/12/31 04:40:20;;;;;;;36.35;14.45;;;;;;;9.51;100.00;98579.20;2147438;82;21079;-81
2021/12/31 04:43:21;;;;;;;16.67;10.90;;;;;;;9.51;100.00;98594.88;2147920;83;21495;-81
2021/12/31 04:46:21;;;;;;;11.70;9.25;;;;;;;9.54;100.00;98591.91;2147899;83;21049;-81
2021/12/31 04:49:22;;;;;;;11.38;8.95;;;;;;;9.57;100.00;98602.49;2147910;83;21490;-81
2021/12/31 04:52:23;;;;;;;14.45;10.00;;;;;;;9.60;100.00;98606.05;2147872;83;20972;-80
2021/12/31 04:55:24;;;;;;;11.53;9.10;;;;;;;9.59;100.00;98605.24;2147789;83;21015;-81
2021/12/31 04:58:25;;;;;;;14.03;10.03;;;;;;;9.63;100.00;98610.45;2147801;83;20936;-80
2021/12/31 05:01:26;;;;;;;14.73;10.68;;;;;;;9.62;100.00;98608.84;2147728;83;21046;-80
2021/12/31 05:04:27;;;;;;;13.65;10.40;;;;;;;9.62;100.00;98610.64;2147916;83;20959;-80
2021/12/31 05:07:27;;;;;;;14.43;11.08;;;;;;;9.63;100.00;98615.69;2147937;83;21038;-80
2021/12/31 05:10:31;;;;;;;15.80;10.90;;;;;;;9.64;100.00;98623.84;2147753;83;20946;-80
2021/12/31 05:13:31;;;;;;;16.55;11.55;;;;;;;9.65;100.00;98617.62;2141729;81;21051;-80
2021/12/31 05:16:32;;;;;;;18.52;12.15;;;;;;;9.69;100.00;98626.76;2141773;82;21063;-81
2021/12/31 05:19:32;;;;;;;16.07;11.63;;;;;;;9.74;100.00;98630.63;2141593;83;20999;-81
2021/12/31 05:22:33;;;;;;;14.00;11.00;;;;;;;9.77;100.00;98621.13;2141692;82;21062;-80
2021/12/31 05:25:34;;;;;;;14.55;12.40;;;;;;;9.77;100.00;98621.13;2141722;83;20959;-81
2021/12/31 05:28:36;;;;;;;11.50;9.85;;;;;;;9.78;100.00;98626.17;2141598;82;21042;-80
2021/12/31 05:31:37;;;;;;;17.85;11.03;;;;;;;9.74;100.00;98622.30;2142308;83;21538;-81
2021/12/31 05:34:37;;;;;;;17.15;12.53;;;;;;;9.74;100.00;98624.91;2141669;82;20990;-79
2021/12/31 05:37:39;;;;;;;16.48;11.10;;;;;;;9.76;100.00;98624.23;2141254;83;21027;-80
2021/12/31 05:40:39;;;;;;;16.42;11.15;;;;;;;9.76;100.00;98619.50;2143454;82;21095;-80
2021/12/31 05:43:40;;;;;;;17.17;11.25;;;;;;;9.78;100.00;98619.63;2144051;83;20947;-81
2021/12/31 05:46:45;;;;;;;16.32;11.55;;;;;;;9.81;100.00;98614.07;2143763;83;21114;-80
2021/12/31 05:49:45;;;;;;;19.40;12.00;;;;;;;9.83;100.00;98617.81;2143764;83;20983;-80
2021/12/31 05:52:46;;;;;;;17.27;12.50;;;;;;;9.83;100.00;98623.84;2143946;83;20986;-80
2021/12/31 05:55:47;;;;;;;18.57;13.30;;;;;;;9.83;100.00;98626.96;2143786;83;21038;-80
2021/12/31 05:58:48;;;;;;;15.08;11.97;;;;;;;9.86;100.00;98633.95;2143736;83;20994;-81
2021/12/31 06:01:49;;;;;;;13.55;11.65;;;;;;;9.93;100.00;98632.75;2144011;83;21023;-80
2021/12/31 06:04:49;;;;;;;13.98;10.88;;;;;;;9.95;100.00;98641.23;2143900;83;20994;-81
2021/12/31 06:07:50;;;;;;;11.90;10.10;;;;;;;9.94;100.00;98635.69;2143830;83;20923;-83
2021/12/31 06:10:51;;;;;;;12.28;10.18;;;;;;;9.94;100.00;98647.45;2144002;83;21077;-82
2021/12/31 06:14:01;;;;;;;16.25;11.57;;;;;;;9.96;100.00;98641.05;2143939;83;20991;-81
2021/12/31 06:17:02;;;;;;;13.13;10.30;;;;;;;9.98;100.00;98643.02;2142338;82;21014;-83
2021/12/31 06:19:57;;;;;;;14.58;11.28;;;;;;;9.99;100.00;98641.21;2142932;83;21533;-83
2021/12/31 06:22:58;;;;;;;12.90;9.63;;;;;;;10.01;100.00;98648.38;2143825;83;20955;-84
2021/12/31 06:25:59;;;;;;;12.23;10.65;;;;;;;10.00;100.00;98646.76;2144089;83;21062;-83
2021/12/31 06:29:00;;;;;;;12.33;10.18;;;;;;;10.01;100.00;98645.77;2143662;83;21478;-83
2021/12/31 06:32:00;;;;;;;11.85;9.85;;;;;;;10.07;100.00;98652.91;2143696;83;21063;-85
2021/12/31 06:35:01;;;;;;;14.45;9.28;;;;;;;10.07;100.00;98652.09;2144156;83;21493;-84
2021/12/31 06:38:03;;;;;;;10.82;8.48;;;;;;;10.08;100.00;98648.49;2144314;83;20986;-85
2021/12/31 06:41:04;;;;;;;10.55;8.60;;;;;;;10.09;100.00;98652.73;2143853;83;21074;-86
2021/12/31 06:44:05;;;;;;;9.03;7.37;;;;;;;10.06;100.00;98649.98;2144295;83;20998;-82
2021/12/31 06:47:06;;;;;;;8.15;7.30;;;;;;;10.03;100.00;98647.70;2101282;84;21069;-81
2021/12/31 06:50:07;;;;;;;6.10;5.50;;;;;;;10.00;100.00;98652.48;2101041;85;21592;-80
2021/12/31 06:53:08;;;;;;;6.90;6.30;;;;;;;9.95;100.00;98654.31;2100698;85;21119;-86
2021/12/31 06:56:08;;;;;;;7.92;6.97;;;;;;;9.93;100.00;98659.72;2101249;85;20957;-84
2021/12/31 06:59:09;;;;;;;7.85;6.28;;;;;;;9.92;100.00;98650.25;2101167;85;21132;-84
2021/12/31 07:02:10;;;;;;;5.72;5.12;;;;;;;9.92;100.00;98645.02;2101679;85;21115;-85
2021/12/31 07:05:11;;;;;;;9.30;7.00;;;;;;;9.93;100.00;98649.26;2100857;85;21013;-85
2021/12/31 07:08:13;;;;;;;5.70;5.20;;;;;;;9.93;100.00;98651.06;2100612;85;21135;-83
2021/12/31 07:11:14;;;;;;;7.58;5.58;;;;;;;9.95;100.00;98655.12;2095367;83;21561;-85
2021/12/31 07:14:14;;;;;;;5.85;4.75;;;;;;;9.98;100.00;98650.86;2143818;83;21000;-85
2021/12/31 07:17:15;;;;;;;4.67;4.28;;;;;;;9.99;100.00;98650.36;2144060;83;20994;-83
2021/12/31 07:20:16;;;;;;;4.20;3.80;;;;;;;10.01;100.00;98661.95;2143868;83;21065;-83
2021/12/31 07:23:17;;;;;;;5.65;4.42;;;;;;;9.99;100.00;98659.52;2144042;83;22089;-82
2021/12/31 07:26:18;;;;;;;5.67;4.03;;;;;;;10.01;100.00;98664.57;2143784;83;21006;-86
2021/12/31 07:29:18;;;;;;;4.83;4.22;;;;;;;10.02;100.00;98657.04;2143806;83;20955;-81
2021/12/31 07:32:19;;;;;;;4.87;3.92;;;;;;;10.03;100.00;98661.27;2143850;83;20998;-82
2021/12/31 07:35:20;;;;;;;4.17;3.77;;;;;;;10.05;100.00;98669.75;2144153;83;21003;-83
2021/12/31 07:38:24;;;;;;;5.47;5.00;;;;;;;10.08;100.00;98674.66;2143770;83;20959;-82
2021/12/31 07:41:23;;;;;;;4.62;3.52;;;;;;;10.09;100.00;98677.58;2120008;83;21067;-82
2021/12/31 07:44:24;;;;;;;4.22;3.83;;;;;;;10.10;100.00;98671.36;2120278;83;21014;-83
2021/12/31 07:47:25;;;;;;;3.30;3.10;;;;;;;10.10;100.00;98676.59;2119999;83;20983;-82
2021/12/31 07:50:26;;;;;;;2.90;2.60;;;;;;;10.10;100.00;98670.86;2120211;83;20999;-83
2021/12/31 07:53:27;;;;;;;2.90;2.60;;;;;;;10.11;100.00;98675.59;2120155;83;21043;-84
2021/12/31 07:56:28;;;;;;;4.25;3.52;;;;;;;10.11;100.00;98672.98;2120127;83;21598;-85
2021/12/31 07:59:29;;;;;;;6.50;4.75;;;;;;;10.12;100.00;98672.80;2120482;83;21087;-84
2021/12/31 08:02:30;;;;;;;3.72;2.98;;;;;;;10.14;100.00;98677.84;2120352;83;20961;-82
2021/12/31 08:05:31;;;;;;;3.77;3.25;;;;;;;10.14;100.00;98670.81;2120253;84;21003;-83
2021/12/31 08:08:32;;;;;;;4.28;3.47;;;;;;;10.18;100.00;98668.67;2120471;83;21022;-81
2021/12/31 08:11:33;;;;;;;5.08;4.25;;;;;;;10.23;100.00;98675.01;2120325;83;20980;-83
2021/12/31 08:14:33;;;;;;;4.85;3.77;;;;;;;10.28;100.00;98674.48;2120897;83;20996;-84
2021/12/31 08:17:34;;;;;;;4.05;3.70;;;;;;;10.29;100.00;98674.80;2120059;83;20925;-84
2021/12/31 08:20:36;;;;;;;6.17;4.72;;;;;;;10.29;100.00;98689.20;2120053;83;21022;-82
2021/12/31 08:23:37;;;;;;;6.00;4.83;;;;;;;10.28;100.00;98679.72;2120155;83;20964;-84
2021/12/31 08:26:38;;;;;;;7.17;5.85;;;;;;;10.29;100.00;98682.66;2120473;84;20956;-81
2021/12/31 08:29:39;;;;;;;4.67;4.25;;;;;;;10.32;100.00;98680.17;2120129;83;21062;-81
2021/12/31 08:32:40;;;;;;;6.42;4.42;;;;;;;10.34;100.00;98683.44;2120354;83;21487;-81
2021/12/31 08:35:41;;;;;;;5.60;4.62;;;;;;;10.35;100.00;98694.23;2120146;84;20960;-81
2021/12/31 08:38:42;;;;;;;4.83;4.42;;;;;;;10.36;100.00;98690.12;2120639;82;21031;-81
2021/12/31 08:41:42;;;;;;;5.05;3.70;;;;;;;10.38;100.00;98699.91;2144009;83;21488;-80
2021/12/31 08:44:43;;;;;;;4.08;3.77;;;;;;;10.40;100.00;98696.61;2143969;83;21054;-82
2021/12/31 08:47:44;;;;;;;3.87;3.58;;;;;;;10.42;100.00;98695.11;2143910;83;20987;-84
2021/12/31 08:50:45;;;;;;;3.65;3.35;;;;;;;10.46;100.00;98715.53;2144231;83;20994;-82
2021/12/31 08:53:46;;;;;;;5.15;3.42;;;;;;;10.44;100.00;98709.67;2143901;83;21002;-83
2021/12/31 08:56:47;;;;;;;4.33;3.92;;;;;;;10.42;100.00;98712.13;2143957;83;20986;-83
2021/12/31 08:59:47;;;;;;;5.33;4.83;;;;;;;10.41;100.00;98715.73;2143958;83;20999;-83
2021/12/31 09:02:49;;;;;;;4.92;4.55;;;;;;;10.42;100.00;98711.66;2144020;83;21027;-81
2021/12/31 09:05:50;;;;;;;3.83;3.33;;;;;;;10.47;100.00;98717.66;2143818;83;20976;-82
2021/12/31 09:08:51;;;;;;;5.20;3.70;;;;;;;10.49;100.00;98714.36;2144082;83;20991;-83
2021/12/31 09:11:54;;;;;;;4.95;3.83;;;;;;;10.51;100.00;98718.91;2143825;83;21579;-82
2021/12/31 09:14:55;;;;;;;4.15;3.65;;;;;;;10.49;100.00;98716.97;2144003;83;21023;-82
2021/12/31 09:17:56;;;;;;;4.65;3.15;;;;;;;10.48;100.00;98712.73;2143912;83;21051;-82
2021/12/31 09:20:56;;;;;;;3.92;3.60;;;;;;;10.49;100.00;98713.86;2143920;83;21470;-82
2021/12/31 09:23:57;;;;;;;4.25;3.80;;;;;;;10.53;100.00;98705.17;2144502;83;21081;-83
2021/12/31 09:26:58;;;;;;;5.97;3.52;;;;;;;10.52;100.00;98717.45;2143891;83;20968;-80
2021/12/31 09:29:59;;;;;;;4.03;3.72;;;;;;;10.61;100.00;98722.61;2143867;83;21030;-82
2021/12/31 09:33:00;;;;;;;4.22;3.83;;;;;;;10.65;100.00;98725.98;2143963;83;20963;-83
2021/12/31 09:36:01;;;;;;;4.80;3.40;;;;;;;10.69;100.00;98719.38;2144031;83;20980;-82
2021/12/31 09:39:02;;;;;;;5.25;3.67;;;;;;;10.75;100.00;98712.13;2143961;83;21002;-81
2021/12/31 09:42:03;;;;;;;6.05;3.37;;;;;;;10.81;100.00;98706.17;2143955;83;20943;-83
2021/12/31 09:45:04;;;;;;;4.50;4.10;;;;;;;10.91;100.00;98702.47;2143980;83;21057;-84
2021/12/31 09:48:05;;;;;;;4.17;3.87;;;;;;;11.00;100.00;98711.85;2144003;83;21011;-83
2021/12/31 09:51:06;;;;;;;5.35;4.12;;;;;;;11.05;100.00;98704.24;2143937;83;20967;-82
2021/12/31 09:54:06;;;;;;;4.08;3.70;;;;;;;11.11;100.00;98706.95;2143783;83;20983;-82
2021/12/31 09:57:07;;;;;;;4.17;3.77;;;;;;;11.22;100.00;98712.22;2143801;83;20995;-83
2021/12/31 10:00:08;;;;;;;4.20;3.80;;;;;;;11.31;100.00;98709.00;2143902;83;21105;-82
2021/12/31 10:03:09;;;;;;;5.42;4.10;;;;;;;11.44;100.00;98699.17;2144051;83;21037;-80
2021/12/31 10:06:10;;;;;;;3.55;3.25;;;;;;;11.54;100.00;98710.98;2143869;83;20994;-85
2021/12/31 10:09:11;;;;;;;4.72;3.83;;;;;;;11.61;100.00;98709.72;2143983;83;20959;-82
2021/12/31 10:12:12;;;;;;;6.65;3.95;;;;;;;11.67;100.00;98699.80;2144045;83;21051;-87
2021/12/31 10:15:12;;;;;;;5.35;4.10;;;;;;;11.73;100.00;98706.94;2144118;83;20983;-86
2021/12/31 10:18:15;;;;;;;5.97;5.20;;;;;;;11.75;100.00;98701.00;2143955;83;21053;-83
2021/12/31 10:21:19;;;;;;;6.25;4.87;;;;;;;11.76;100.00;98691.31;2144027;83;21026;-83
2021/12/31 10:24:18;;;;;;;5.72;5.03;;;;;;;11.85;100.00;98684.98;2143541;82;21016;-84
2021/12/31 10:27:20;;;;;;;8.80;5.35;;;;;;;11.85;100.00;98684.98;2144032;83;21565;-84
2021/12/31 10:30:22;;;;;;;8.35;5.40;;;;;;;11.92;100.00;98686.66;2143898;83;21011;-83
2021/12/31 10:33:23;;;;;;;7.17;5.62;;;;;;;12.01;100.00;98683.41;2143863;83;21017;-82
2021/12/31 10:36:24;;;;;;;9.40;8.38;;;;;;;12.11;100.00;98685.20;2144272;83;21450;-80
2021/12/31 10:39:25;;;;;;;8.18;5.42;;;;;;;12.22;100.00;98678.62;2144013;83;21069;-83
2021/12/31 10:42:27;;;;;;;10.00;5.35;;;;;;;12.28;100.00;98692.81;2143832;83;21088;-83
2021/12/31 10:45:28;;;;;;;4.15;3.62;;;;;;;12.32;100.00;98685.66;2143961;83;21090;-86
2021/12/31 10:48:29;;;;;;;4.33;3.80;;;;;;;12.38;100.00;98686.72;2143930;83;21019;-85
2021/12/31 10:51:29;;;;;;;6.10;3.50;;;;;;;12.43;100.00;98685.13;2143994;83;21502;-83
2021/12/31 10:54:48;;;;;;;5.42;3.20;;;;;;;12.49;100.00;98689.62;2143769;83;20955;-84
2021/12/31 10:57:48;;;;;;;3.87;3.17;;;;;;;12.55;100.00;98686.73;2144061;82;21002;-83
2021/12/31 11:00:49;;;;;;;3.50;3.00;;;;;;;12.60;100.00;98688.77;2143965;83;20970;-83
2021/12/31 11:03:50;;;;;;;2.87;2.60;;;;;;;12.67;100.00;98682.56;2143798;83;21043;-84
2021/12/31 11:06:51;;;;;;;3.98;3.22;;;;;;;12.72;100.00;98684.62;2143851;83;21031;-83
2021/12/31 11:09:52;;;;;;;3.00;2.55;;;;;;;12.80;100.00;98688.38;2143811;83;21102;-87
2021/12/31 11:12:53;;;;;;;3.87;2.65;;;;;;;12.79;100.00;98679.69;2143939;83;21510;-85
2021/12/31 11:15:54;;;;;;;3.25;2.72;;;;;;;12.75;100.00;98682.91;2143874;83;21006;-85
2021/12/31 11:18:55;;;;;;;3.47;2.62;;;;;;;12.72;100.00;98680.68;2144520;83;21114;-87
2021/12/31 11:21:56;;;;;;;3.12;2.83;;;;;;;12.70;100.00;98683.98;2143789;83;20995;-88
2021/12/31 11:24:57;;;;;;;3.52;3.27;;;;;;;12.67;100.00;98675.18;2143892;83;21007;-85
2021/12/31 11:27:58;;;;;;;4.75;3.50;;;;;;;12.67;100.00;98681.24;2144000;83;21041;-83
2021/12/31 11:30:59;;;;;;;3.22;2.80;;;;;;;12.71;100.00;98675.09;2143971;83;20971;-83
2021/12/31 11:34:01;;;;;;;2.77;2.58;;;;;;;12.71;100.00;98675.93;2143970;83;21036;-84
2021/12/31 11:37:02;;;;;;;4.55;3.60;;;;;;;12.66;100.00;98662.55;2115409;83;21070;-83
2021/12/31 11:40:02;;;;;;;5.37;4.05;;;;;;;12.63;100.00;98670.83;2143570;83;20984;-82
